Time;durP1;ratioP1;P1;durP2;ratioP2;P2;SDS_P1;SDS_P2;PMS_P1;PMS_P2;Temp;Humidity;BMP_temperature;BMP_pressure;BME280_temperature;BME280_humidity;BME280_pressure;Samples;Min_cycle;Max_cycle;Signal;HPM_P1;HPM_P2
2023/12/24 00:00:08;;;;;;;0.85;0.32;;;;;;;11.46;100.00;98595.28;7398215;19;20014;-59
2023/12/24 00:02:34;;;;;;;0.10;0.10;;;;;;;11.47;100.00;98591.25;7395521;19;20301;-59
2023/12/24 00:05:00;;;;;;;0.08;0.08;;;;;;;11.52;100.00;98598.81;7398474;19;20014;-59
2023/12/24 00:07:27;;;;;;;0.10;0.10;;;;;;;11.53;100.00;98600.34;7396908;19;20010;-59
2023/12/24 00:09:53;;;;;;;3.13;0.40;;;;;;;11.50;100.00;98584.63;7397592;19;20018;-58
2023/12/24 00:12:19;;;;;;;1.17;0.38;;;;;;;11.53;100.00;98588.44;7396750;19;20022;-58
2023/12/24 00:14:46;;;;;;;0.63;0.20;;;;;;;11.67;100.00;98582.59;7397231;19;20020;-59
2023/12/24 00:17:12;;;;;;;1.95;0.32;;;;;;;11.58;100.00;98585.63;7397744;19;20035;-58
2023/12/24 00:19:38;;;;;;;0.55;0.32;;;;;;;11.61;100.00;98573.44;7395746;19;20010;-58
2023/12/24 00:22:05;;;;;;;1.63;0.70;;;;;;;11.61;100.00;98578.28;7398535;19;20022;-58
2023/12/24 00:24:32;;;;;;;0.10;0.10;;;;;;;11.62;100.00;98586.13;7393059;19;20023;-58
2023/12/24 00:26:58;;;;;;;0.10;0.10;;;;;;;11.68;100.00;98575.72;7398394;19;20025;-59
2023/12/24 00:29:25;;;;;;;0.55;0.20;;;;;;;11.64;100.00;98578.00;7399110;19;20011;-58
2023/12/24 00:31:51;;;;;;;1.65;0.55;;;;;;;11.63;100.00;98575.75;7395227;19;20014;-58
2023/12/24 00:34:17;;;;;;;1.65;0.20;;;;;;;11.84;100.00;98569.31;7395884;19;20010;-58
2023/12/24 00:36:43;;;;;;;1.50;0.32;;;;;;;11.67;100.00;98574.22;7395013;19;20636;-59
2023/12/24 00:39:10;;;;;;;2.63;0.75;;;;;;;11.68;100.00;98580.53;7397960;19;20017;-58
2023/12/24 00:41:39;;;;;;;0.90;0.25;;;;;;;11.65;100.00;98573.94;7396805;19;20439;-59
2023/12/24 00:44:06;;;;;;;0.77;0.32;;;;;;;11.68;100.00;98578.50;7394144;19;20006;-59
2023/12/24 00:46:32;;;;;;;0.47;0.20;;;;;;;11.71;100.00;98583.06;7394213;19;20359;-59
2023/12/24 00:48:58;;;;;;;1.05;0.82;;;;;;;11.71;100.00;98577.50;7392994;19;20459;-59
2023/12/24 00:51:24;;;;;;;0.28;0.20;;;;;;;11.73;100.00;98580.53;7397695;19;20011;-59
2023/12/24 00:53:51;;;;;;;2.70;0.50;;;;;;;11.72;100.00;98583.81;7392014;19;20011;-59
2023/12/24 00:56:17;;;;;;;0.65;0.38;;;;;;;11.78;100.00;98581.78;7397292;19;20011;-59
2023/12/24 00:58:44;;;;;;;3.10;0.93;;;;;;;11.82;100.00;98574.66;7393541;19;20379;-58
2023/12/24 01:01:10;;;;;;;0.43;0.20;;;;;;;11.77;100.00;98561.50;7394559;19;20010;-59
2023/12/24 01:03:36;;;;;;;3.08;0.68;;;;;;;11.57;100.00;98563.81;7393153;19;20034;-58
2023/12/24 01:06:02;;;;;;;0.25;0.15;;;;;;;11.73;100.00;98563.03;7394562;19;20023;-58
2023/12/24 01:08:28;;;;;;;0.15;0.10;;;;;;;11.64;100.00;98558.47;7393203;19;20030;-58
2023/12/24 01:10:55;;;;;;;0.10;0.10;;;;;;;11.81;100.00;98553.59;7394009;19;20446;-58
2023/12/24 01:13:21;;;;;;;0.10;0.10;;;;;;;11.64;100.00;98552.91;7391171;19;20015;-58
2023/12/24 01:15:48;;;;;;;0.20;0.20;;;;;;;11.65;100.00;98559.97;7392006;19;20024;-59
2023/12/24 01:18:15;;;;;;;0.10;0.00;;;;;;;11.61;100.00;98558.75;7393060;19;20007;-58
2023/12/24 01:20:41;;;;;;;0.05;0.05;;;;;;;11.62;100.00;98571.41;7393751;19;20018;-58
2023/12/24 01:23:07;;;;;;;0.10;0.10;;;;;;;11.66;100.00;98569.88;7392097;19;20014;-58
2023/12/24 01:25:34;;;;;;;0.38;0.10;;;;;;;11.50;100.00;98562.34;7393667;19;20021;-58
2023/12/24 01:28:00;;;;;;;0.57;0.20;;;;;;;11.62;100.00;98566.59;7393762;19;20038;-58
2023/12/24 01:30:26;;;;;;;0.20;0.20;;;;;;;11.52;100.00;98559.78;7392078;19;20356;-58
2023/12/24 01:32:54;;;;;;;0.20;0.20;;;;;;;11.52;100.00;98564.63;7392221;19;20352;-59
2023/12/24 01:35:20;;;;;;;0.20;0.17;;;;;;;11.56;100.00;98567.91;7392318;19;20367;-58
2023/12/24 01:37:46;;;;;;;0.28;0.10;;;;;;;11.73;100.00;98569.38;7394182;19;20022;-58
2023/12/24 01:40:12;;;;;;;0.10;0.00;;;;;;;11.51;100.00;98568.66;7394374;19;20010;-58
2023/12/24 01:42:41;;;;;;;0.10;0.00;;;;;;;11.58;100.00;98563.34;7392154;19;20010;-59
2023/12/24 01:45:08;;;;;;;0.10;0.10;;;;;;;11.65;100.00;98551.63;7396767;19;20021;-59
2023/12/24 01:47:34;;;;;;;0.10;0.00;;;;;;;11.67;100.00;98556.72;7393271;19;20018;-58
2023/12/24 01:50:00;;;;;;;0.20;0.10;;;;;;;11.72;100.00;98553.91;7397134;19;20010;-58
2023/12/24 01:52:27;;;;;;;0.20;0.10;;;;;;;11.75;100.00;98538.16;7392391;19;20425;-58
2023/12/24 01:54:54;;;;;;;1.58;0.15;;;;;;;11.77;100.00;98525.22;7391397;19;20018;-58
2023/12/24 01:57:21;;;;;;;0.00;0.00;;;;;;;11.76;100.00;98518.13;7395279;19;20022;-58
2023/12/24 01:59:49;;;;;;;11.70;1.35;;;;;;;11.80;100.00;98518.59;7390533;19;20019;-59
2023/12/24 02:02:17;;;;;;;0.00;0.00;;;;;;;11.76;100.00;98523.69;7395190;19;20010;-58
2023/12/24 02:04:44;;;;;;;0.20;0.10;;;;;;;11.75;100.00;98544.50;7388593;19;20014;-58
2023/12/24 02:07:11;;;;;;;0.25;0.00;;;;;;;11.75;100.00;98544.50;7393010;19;20078;-58
2023/12/24 02:09:37;;;;;;;0.10;0.10;;;;;;;11.77;100.00;98569.09;7391187;19;20090;-58
2023/12/24 02:12:04;;;;;;;0.95;0.10;;;;;;;11.80;100.00;98560.44;7392292;19;20100;-58
2023/12/24 02:14:30;;;;;;;0.10;0.00;;;;;;;11.76;100.00;98557.16;7396986;19;20018;-58
2023/12/24 02:16:59;;;;;;;0.10;0.10;;;;;;;11.78;100.00;98551.84;7390340;19;20014;-58
2023/12/24 02:19:25;;;;;;;0.35;0.10;;;;;;;11.79;100.00;98552.59;7389732;19;20086;-58
2023/12/24 02:21:52;;;;;;;0.35;0.17;;;;;;;12.43;100.00;98548.38;7390729;19;20028;-58
2023/12/24 02:24:18;;;;;;;0.10;0.10;;;;;;;11.93;100.00;98541.09;7392836;19;20003;-58
2023/12/24 02:27:05;;;;;;;1.45;0.10;;;;;;;12.41;100.00;98542.56;7395071;19;20461;-58
2023/12/24 02:29:45;;;;;;;0.05;0.03;;;;;;;13.49;100.00;98518.09;7395533;19;20011;-58
2023/12/24 02:32:15;;;;;;;0.45;0.30;;;;;;;12.36;100.00;98523.81;7395959;19;20013;-58
2023/12/24 02:34:47;;;;;;;0.45;0.20;;;;;;;11.85;100.00;98534.56;7394517;19;20022;-58
2023/12/24 02:37:14;;;;;;;0.40;0.10;;;;;;;12.00;100.00;98534.97;7395371;19;20018;-58
2023/12/24 02:39:41;;;;;;;0.00;0.00;;;;;;;12.17;100.00;98529.28;7393320;19;20521;-59
2023/12/24 02:42:08;;;;;;;0.00;0.00;;;;;;;11.92;100.00;98531.22;7395616;19;20391;-58
2023/12/24 02:44:35;;;;;;;4.47;0.20;;;;;;;11.80;100.00;98524.19;7392994;19;20014;-59
2023/12/24 02:47:02;;;;;;;1.10;0.50;;;;;;;11.69;100.00;98535.44;7400687;19;20341;-59
2023/12/24 02:49:28;;;;;;;0.43;0.22;;;;;;;11.91;100.00;98540.84;7403265;19;20014;-58
2023/12/24 02:51:54;;;;;;;4.03;0.43;;;;;;;11.91;100.00;98540.84;7401298;19;20007;-59
2023/12/24 02:54:20;;;;;;;1.60;0.80;;;;;;;11.98;100.00;98545.91;7399048;19;20458;-59
2023/12/24 02:56:46;;;;;;;1.38;0.20;;;;;;;11.84;100.00;98529.50;7400273;19;20010;-59
2023/12/24 02:59:13;;;;;;;0.38;0.25;;;;;;;11.80;100.00;98540.91;7399525;19;20017;-59
2023/12/24 03:01:39;;;;;;;0.10;0.10;;;;;;;11.67;100.00;98543.56;7400844;19;20010;-59
2023/12/24 03:04:06;;;;;;;3.55;0.40;;;;;;;11.71;100.00;98530.09;7399906;19;20030;-59
2023/12/24 03:06:32;;;;;;;0.95;0.35;;;;;;;11.78;100.00;98526.72;7402392;19;20322;-59
2023/12/24 03:08:58;;;;;;;1.20;0.63;;;;;;;11.74;100.00;98536.63;7402968;19;20018;-60
2023/12/24 03:11:27;;;;;;;0.10;0.10;;;;;;;11.66;100.00;98530.84;7402185;19;20017;-59
2023/12/24 03:13:53;;;;;;;0.90;0.20;;;;;;;11.67;100.00;98524.03;7402727;19;20026;-59
2023/12/24 03:16:19;;;;;;;2.60;0.50;;;;;;;11.89;100.00;98514.78;7401863;19;20466;-59
2023/12/24 03:18:45;;;;;;;3.03;0.68;;;;;;;11.99;100.00;98508.34;7401116;19;20007;-59
2023/12/24 03:21:11;;;;;;;0.10;0.10;;;;;;;18.70;100.00;98487.13;7401538;19;20024;-59
2023/12/24 03:23:38;;;;;;;0.30;0.00;;;;;;;13.82;100.00;98477.72;7402174;19;20022;-59
2023/12/24 03:26:04;;;;;;;0.00;0.00;;;;;;;14.71;100.00;98480.59;7402984;19;20011;-59
2023/12/24 03:28:31;;;;;;;1.10;0.90;;;;;;;13.52;100.00;98481.44;7400927;19;20017;-58
2023/12/24 03:30:57;;;;;;;0.40;0.15;;;;;;;14.07;100.00;98481.91;7400027;19;20340;-59
2023/12/24 03:33:23;;;;;;;0.40;0.10;;;;;;;13.28;100.00;98487.06;7401436;19;20081;-59
2023/12/24 03:35:49;;;;;;;1.02;0.55;;;;;;;13.24;100.00;98495.00;7397584;19;20340;-58
2023/12/24 03:38:17;;;;;;;0.05;0.05;;;;;;;13.24;100.00;98486.63;7397960;19;20011;-59
2023/12/24 03:40:43;;;;;;;0.10;0.10;;;;;;;12.57;100.00;98506.09;7395438;19;20014;-58
2023/12/24 03:43:09;;;;;;;0.90;0.50;;;;;;;12.74;100.00;98497.56;7396940;19;20017;-58
2023/12/24 03:45:36;;;;;;;0.47;0.15;;;;;;;13.36;100.00;98474.00;7394552;19;20027;-58
2023/12/24 03:48:04;;;;;;;0.10;0.03;;;;;;;12.93;100.00;98492.78;7397867;19;20014;-59
2023/12/24 03:50:30;;;;;;;0.10;0.10;;;;;;;13.70;100.00;98471.53;7397507;19;20015;-58
2023/12/24 03:52:56;;;;;;;0.10;0.00;;;;;;;15.39;100.00;98467.53;7397085;19;20342;-59
2023/12/24 03:55:22;;;;;;;1.00;0.25;;;;;;;13.35;100.00;98455.72;7395585;19;20019;-59
2023/12/24 03:57:48;;;;;;;0.00;0.00;;;;;;;12.51;100.00;98459.97;7400835;19;20358;-59
2023/12/24 04:00:15;;;;;;;0.08;0.08;;;;;;;15.19;100.00;98452.13;7395292;19;20018;-58
2023/12/24 04:02:41;;;;;;;0.00;0.00;;;;;;;14.42;100.00;98453.63;7396789;19;20010;-59
2023/12/24 04:05:07;;;;;;;0.10;0.10;;;;;;;12.77;100.00;98463.00;7397562;19;20017;-58
2023/12/24 04:07:33;;;;;;;0.00;0.00;;;;;;;12.41;100.00;98469.97;7398780;19;20021;-58
2023/12/24 04:09:59;;;;;;;8.40;0.30;;;;;;;13.30;100.00;98445.34;7396903;19;20010;-59
2023/12/24 04:12:25;;;;;;;0.10;0.10;;;;;;;12.47;100.00;98457.47;7395933;19;20010;-59
2023/12/24 04:14:51;;;;;;;0.00;0.00;;;;;;;12.38;100.00;98459.84;7395744;19;20375;-58
2023/12/24 04:17:18;;;;;;;0.10;0.10;;;;;;;12.31;100.00;98465.97;7397588;19;20030;-58
2023/12/24 04:19:45;;;;;;;0.00;0.00;;;;;;;12.44;100.00;98466.88;7395248;19;20014;-58
2023/12/24 04:22:11;;;;;;;0.00;0.00;;;;;;;12.50;100.00;98466.81;7395353;19;20033;-58
2023/12/24 04:24:38;;;;;;;0.47;0.10;;;;;;;12.42;100.00;98469.44;7391499;19;20048;-58
2023/12/24 04:27:04;;;;;;;0.10;0.10;;;;;;;12.52;100.00;98469.84;7398218;19;20023;-58
2023/12/24 04:29:31;;;;;;;0.32;0.20;;;;;;;12.43;100.00;98464.63;7394295;19;20018;-58
2023/12/24 04:31:57;;;;;;;0.00;0.00;;;;;;;12.56;100.00;98461.97;7394496;19;20030;-58
2023/12/24 04:34:23;;;;;;;0.10;0.00;;;;;;;12.39;100.00;98455.78;7394658;19;20014;-58
2023/12/24 04:36:49;;;;;;;0.10;0.10;;;;;;;12.61;100.00;98455.53;7395405;19;20503;-59
2023/12/24 04:39:16;;;;;;;1.25;0.43;;;;;;;12.67;100.00;98459.03;7394203;19;20014;-58
2023/12/24 04:41:42;;;;;;;0.00;0.00;;;;;;;12.66;100.00;98457.53;7396175;19;20462;-59
2023/12/24 04:44:08;;;;;;;0.10;0.00;;;;;;;12.63;100.00;98453.75;7393701;19;20351;-58
2023/12/24 04:46:42;;;;;;;0.30;0.13;;;;;;;12.51;100.00;98451.59;7392850;19;20409;-58
2023/12/24 04:49:08;;;;;;;1.75;0.95;;;;;;;12.92;nan;98454.97;7398719;19;20466;-58
2023/12/24 04:51:34;;;;;;;0.00;0.00;;;;;;;12.64;nan;98444.09;7396792;19;20019;-58
2023/12/24 04:54:02;;;;;;;4.13;0.95;;;;;;;12.53;nan;98452.59;7394810;19;20022;-58
2023/12/24 04:56:28;;;;;;;0.10;0.00;;;;;;;12.53;nan;98443.44;7395507;19;20094;-58
2023/12/24 04:58:56;;;;;;;0.00;0.00;;;;;;;12.54;nan;98444.97;7397242;19;20007;-58
2023/12/24 05:01:25;;;;;;;0.00;0.00;;;;;;;12.39;nan;98439.75;7393833;19;20006;-58
2023/12/24 05:03:51;;;;;;;0.20;0.10;;;;;;;12.32;nan;98422.84;7397949;19;20010;-58
2023/12/24 05:06:17;;;;;;;0.10;0.10;;;;;;;12.43;nan;98414.38;7393557;19;20031;-58
2023/12/24 05:08:43;;;;;;;0.10;0.10;;;;;;;12.39;nan;98416.69;7396585;19;20014;-58
2023/12/24 05:11:10;;;;;;;0.10;0.10;;;;;;;12.32;nan;98417.25;7395713;19;20056;-58
2023/12/24 05:13:37;;;;;;;0.00;0.00;;;;;;;12.67;nan;98419.91;7394053;19;20041;-58
2023/12/24 05:16:06;;;;;;;0.20;0.10;;;;;;;12.44;nan;98418.66;7394428;19;20031;-59
2023/12/24 05:18:33;;;;;;;0.40;0.20;;;;;;;12.38;nan;98426.34;7395493;19;20021;-58
2023/12/24 05:20:59;;;;;;;0.28;0.28;;;;;;;12.47;nan;98434.38;7394201;19;20015;-58
2023/12/24 05:23:26;;;;;;;0.10;0.10;;;;;;;12.36;nan;98440.81;7392710;19;20011;-58
2023/12/24 05:25:52;;;;;;;0.10;0.10;;;;;;;12.47;nan;98434.38;7394211;19;20015;-58
2023/12/24 05:28:18;;;;;;;0.77;0.22;;;;;;;12.65;nan;98442.03;7396226;19;20025;-58
2023/12/24 05:30:44;;;;;;;0.10;0.10;;;;;;;13.06;nan;98439.81;7393363;19;20015;-58
2023/12/24 05:33:11;;;;;;;0.00;0.00;;;;;;;12.81;nan;98441.13;7393021;19;20006;-58
2023/12/24 05:35:37;;;;;;;2.95;0.17;;;;;;;12.51;nan;98430.00;7392923;19;20081;-58
2023/12/24 05:38:04;;;;;;;0.00;0.00;;;;;;;13.26;nan;98436.53;7393886;19;20052;-58
2023/12/24 05:40:30;;;;;;;0.10;0.00;;;;;;;12.84;nan;98428.91;7396755;19;20014;-59
2023/12/24 05:42:56;;;;;;;0.25;0.20;;;;;;;12.83;nan;98430.16;7394855;19;20015;-59
2023/12/24 05:45:22;;;;;;;0.85;0.40;;;;;;;12.83;nan;98416.19;7392460;19;20463;-59
2023/12/24 05:47:49;;;;;;;0.10;0.03;;;;;;;12.94;nan;98413.28;7391567;19;20010;-59
2023/12/24 05:50:15;;;;;;;1.20;0.70;;;;;;;12.89;nan;98408.50;7391619;19;20025;-58
2023/12/24 05:52:42;;;;;;;2.60;0.10;;;;;;;12.44;nan;98419.41;7395315;19;20011;-59
2023/12/24 05:55:10;;;;;;;0.20;0.05;;;;;;;12.37;nan;98424.81;7393695;19;20018;-59
2023/12/24 05:57:36;;;;;;;1.50;0.52;;;;;;;12.42;nan;98408.03;7396197;19;20018;-59
2023/12/24 06:00:03;;;;;;;0.00;0.00;;;;;;;12.37;nan;98408.81;7393488;19;20014;-59
2023/12/24 06:02:39;;;;;;;0.50;0.10;;;;;;;12.34;nan;98414.69;7394252;19;20018;-59
2023/12/24 06:05:06;;;;;;;0.00;0.00;;;;;;;12.77;nan;98418.31;7390841;19;20052;-59
2023/12/24 06:07:32;;;;;;;2.47;0.63;;;;;;;12.63;nan;98420.22;7392344;19;20070;-59
2023/12/24 06:09:58;;;;;;;1.75;0.20;;;;;;;12.45;nan;98420.19;7394699;19;20017;-59
2023/12/24 06:12:24;;;;;;;3.30;0.22;;;;;;;12.43;nan;98411.56;7394786;19;20018;-59
2023/12/24 06:14:50;;;;;;;0.00;0.00;;;;;;;12.47;nan;98407.22;7394364;19;20014;-59
2023/12/24 06:17:16;;;;;;;0.10;0.10;;;;;;;12.57;nan;98416.75;7391223;19;20410;-60
2023/12/24 06:19:43;;;;;;;0.40;0.10;;;;;;;12.82;nan;98415.44;7391513;19;20011;-59
2023/12/24 06:22:09;;;;;;;2.95;0.00;;;;;;;12.47;nan;98406.44;7392335;19;20010;-59
2023/12/24 06:24:35;;;;;;;0.13;0.10;;;;;;;12.34;nan;98409.13;7390407;19;20378;-59
2023/12/24 06:27:02;;;;;;;0.08;0.08;;;;;;;12.34;nan;98414.69;7395483;19;20343;-59
2023/12/24 06:29:28;;;;;;;0.10;0.10;;;;;;;12.39;nan;98402.72;7392091;19;20348;-59
2023/12/24 06:31:57;;;;;;;0.00;0.00;;;;;;;12.87;nan;98402.69;7391277;19;20027;-58
2023/12/24 06:34:23;;;;;;;0.00;0.00;;;;;;;14.00;nan;98395.75;7390110;19;20015;-58
2023/12/24 06:36:49;;;;;;;0.00;0.00;;;;;;;13.68;nan;98409.75;7390729;19;20031;-59
2023/12/24 06:39:15;;;;;;;0.00;0.00;;;;;;;12.40;nan;98407.03;7395914;19;20018;-59
2023/12/24 06:41:41;;;;;;;0.88;0.43;;;;;;;12.39;nan;98399.94;7391419;19;20412;-59
2023/12/24 06:44:07;;;;;;;0.20;0.20;;;;;;;12.33;nan;98402.00;7389914;19;20369;-59
2023/12/24 06:46:33;;;;;;;0.90;0.10;;;;;;;12.36;nan;98409.34;7390528;19;20014;-59
2023/12/24 06:49:00;;;;;;;0.00;0.00;;;;;;;12.44;nan;98385.16;7386736;19;20363;-59
2023/12/24 06:51:26;;;;;;;0.10;0.10;;;;;;;12.33;nan;98385.25;7393803;19;20033;-59
2023/12/24 06:53:52;;;;;;;0.65;0.20;;;;;;;13.46;nan;98374.47;7391203;19;20014;-59
2023/12/24 06:56:18;;;;;;;0.95;0.30;;;;;;;12.65;nan;98356.22;7391675;19;20018;-59
2023/12/24 06:58:44;;;;;;;0.00;0.00;;;;;;;13.39;nan;98377.88;7390870;19;20019;-60
2023/12/24 07:01:10;;;;;;;0.10;0.00;;;;;;;13.28;nan;98369.66;7392431;19;20017;-59
2023/12/24 07:03:36;;;;;;;0.00;0.00;;;;;;;12.90;nan;98370.91;7392759;19;20488;-59
2023/12/24 07:06:03;;;;;;;0.10;0.00;;;;;;;13.16;nan;98379.47;7391083;19;20029;-59
2023/12/24 07:08:31;;;;;;;0.10;0.10;;;;;;;13.38;nan;98373.56;7390562;19;20014;-59
2023/12/24 07:10:58;;;;;;;0.00;0.00;;;;;;;13.53;nan;98351.50;7390021;19;20035;-59
2023/12/24 07:13:24;;;;;;;0.00;0.00;;;;;;;13.62;nan;98345.47;7392353;19;20014;-59
2023/12/24 07:15:52;;;;;;;0.00;0.00;;;;;;;13.61;nan;98338.38;7389353;19;20017;-59
2023/12/24 07:18:18;;;;;;;3.63;0.35;;;;;;;13.74;nan;98342.50;7390829;19;20031;-59
2023/12/24 07:20:44;;;;;;;0.00;0.00;;;;;;;14.40;nan;98342.09;7391142;19;20086;-59
2023/12/24 07:23:10;;;;;;;0.10;0.00;;;;;;;15.24;nan;98349.53;7389294;19;20074;-59
2023/12/24 07:25:36;;;;;;;0.00;0.00;;;;;;;13.88;nan;98344.78;7392660;19;20022;-59
2023/12/24 07:28:02;;;;;;;2.75;0.75;;;;;;;13.64;nan;98351.28;7389166;19;20074;-59
2023/12/24 07:30:29;;;;;;;0.10;0.05;;;;;;;13.78;nan;98356.94;7389251;19;20359;-59
2023/12/24 07:32:55;;;;;;;0.00;0.00;;;;;;;13.78;nan;98340.13;7397670;19;20007;-59
2023/12/24 07:35:21;;;;;;;0.08;0.08;;;;;;;13.07;nan;98340.72;7397707;19;20014;-59
2023/12/24 07:37:48;;;;;;;0.00;0.00;;;;;;;13.29;nan;98340.41;7399625;19;20017;-59
2023/12/24 07:40:14;;;;;;;0.00;0.00;;;;;;;14.24;nan;98343.16;7398272;19;20019;-59
2023/12/24 07:42:40;;;;;;;0.00;0.00;;;;;;;13.48;nan;98343.94;7397270;19;20011;-59
2023/12/24 07:45:07;;;;;;;0.20;0.20;;;;;;;13.56;nan;98330.84;7395311;19;20011;-59
2023/12/24 08:26:18;;;;;;;0.00;0.00;;;;;;;15.40;100.00;98328.03;7192146;19;3007516;-86
2023/12/24 08:29:37;;;;;;;0.00;0.00;;;;;;;13.37;100.00;98318.94;7347837;19;20079;-85
2023/12/24 08:56:39;;;;;;;0.00;0.00;;;;;;;15.43;100.00;98330.50;7423441;19;20007;-53
2023/12/24 09:13:10;;;;;;;0.45;0.10;;;;;;;13.53;100.00;98343.09;7398554;19;20482;-55
2023/12/24 09:15:36;;;;;;;0.00;0.00;;;;;;;13.16;100.00;98357.13;7395180;19;20014;-55
2023/12/24 09:18:02;;;;;;;0.22;0.10;;;;;;;13.12;100.00;98358.72;7397541;19;20027;-55
2023/12/24 09:20:29;;;;;;;0.00;0.00;;;;;;;13.05;100.00;98348.88;7397685;19;20019;-56
2023/12/24 09:22:55;;;;;;;0.10;0.10;;;;;;;13.72;100.00;98345.84;7397704;19;20411;-56
2023/12/24 09:25:21;;;;;;;0.00;0.00;;;;;;;12.84;100.00;98339.50;7396289;19;20013;-56
2023/12/24 09:27:47;;;;;;;0.15;0.15;;;;;;;12.82;100.00;98342.06;7395300;19;20030;-56
2023/12/24 09:30:13;;;;;;;0.00;0.00;;;;;;;12.70;100.00;98326.72;7397629;19;20022;-56
2023/12/24 09:32:42;;;;;;;0.00;0.00;;;;;;;12.69;100.00;98344.75;7395765;19;20335;-56
2023/12/24 09:35:08;;;;;;;0.00;0.00;;;;;;;12.70;100.00;98351.84;7396775;19;20007;-56
2023/12/24 09:37:34;;;;;;;1.02;0.10;;;;;;;13.71;100.00;98341.53;7398495;19;20074;-56
2023/12/24 09:40:00;;;;;;;1.00;0.10;;;;;;;14.46;100.00;98328.00;7397754;19;20011;-56
2023/12/24 09:57:03;;;;;;;1.85;1.33;;;;;;;15.36;100.00;98299.53;7395700;19;20662;-58
2023/12/24 10:27:48;;;;;;;0.98;0.17;;;;;;;15.40;100.00;98342.06;7392224;19;20414;-55
2023/12/24 10:30:15;;;;;;;0.10;0.00;;;;;;;15.78;100.00;98349.56;7395719;19;20011;-55
2023/12/24 10:32:42;;;;;;;1.05;0.25;;;;;;;15.92;100.00;98353.03;7395454;19;20021;-55
2023/12/24 10:35:08;;;;;;;3.78;0.38;;;;;;;15.97;100.00;98352.16;7394647;19;20014;-55
2023/12/24 10:37:34;;;;;;;0.20;0.10;;;;;;;16.00;100.00;98365.09;7396124;19;20027;-55
2023/12/24 10:40:10;;;;;;;0.20;0.20;;;;;;;16.06;100.00;98354.47;7395512;19;20010;-55
2023/12/24 10:42:38;;;;;;;0.40;0.20;;;;;;;16.40;100.00;98363.53;7394602;19;20018;-55
2023/12/24 10:45:08;;;;;;;3.13;0.30;;;;;;;16.04;100.00;98354.28;7394556;19;20342;-55
2023/12/24 10:47:35;;;;;;;0.20;0.20;;;;;;;16.36;100.00;98343.47;7394455;19;20018;-55
2023/12/24 10:50:03;;;;;;;0.10;0.00;;;;;;;13.63;100.00;98351.84;7395528;19;20026;-55
2023/12/24 10:52:29;;;;;;;0.80;0.20;;;;;;;13.22;100.00;98368.97;7395533;19;20014;-55
2023/12/24 10:54:58;;;;;;;0.68;0.10;;;;;;;13.10;100.00;98366.88;7393307;19;20390;-55
2023/12/24 10:57:31;;;;;;;0.25;0.10;;;;;;;12.92;100.00;98379.50;7394807;19;20007;-55
2023/12/24 11:00:12;;;;;;;0.10;0.10;;;;;;;12.70;100.00;98374.19;7394955;19;20405;-55
2023/12/24 11:02:49;;;;;;;0.10;0.10;;;;;;;13.25;100.00;98356.75;7394755;19;20018;-59
2023/12/24 11:05:40;;;;;;;0.03;0.00;;;;;;;12.74;100.00;98369.06;7394329;19;20369;-59
2023/12/24 11:08:21;;;;;;;0.43;0.10;;;;;;;12.62;100.00;98374.03;7392549;19;20014;-60
2023/12/24 11:11:03;;;;;;;0.20;0.20;;;;;;;12.76;100.00;98383.25;7393831;19;20333;-61
2023/12/24 11:13:33;;;;;;;2.05;0.65;;;;;;;13.00;100.00;98371.28;7394499;19;20463;-60
2023/12/24 11:16:00;;;;;;;0.45;0.45;;;;;;;12.58;100.00;98375.63;7392273;19;20482;-60
2023/12/24 11:18:46;;;;;;;0.25;0.10;;;;;;;12.56;100.00;98364.22;7394173;19;20026;-60
2023/12/24 11:21:21;;;;;;;0.45;0.25;;;;;;;12.60;100.00;98367.47;7394121;19;20408;-60
2023/12/24 11:24:14;;;;;;;0.35;0.30;;;;;;;12.50;100.00;98369.09;7394213;19;20062;-60
2023/12/24 11:26:53;;;;;;;1.20;0.20;;;;;;;13.03;100.00;98362.59;7392151;19;20053;-60
2023/12/24 11:29:48;;;;;;;0.40;0.00;;;;;;;15.11;100.00;98349.56;7392693;19;20015;-60
2023/12/24 11:32:26;;;;;;;0.10;0.10;;;;;;;13.16;100.00;98339.59;7393701;19;20019;-60
2023/12/24 11:34:57;;;;;;;0.10;0.10;;;;;;;13.62;100.00;98325.91;7391404;19;20035;-60
2023/12/24 11:37:27;;;;;;;0.00;0.00;;;;;;;12.82;100.00;98325.31;7392156;19;20014;-60
2023/12/24 11:40:02;;;;;;;0.10;0.10;;;;;;;13.47;100.00;98316.50;7393379;19;20028;-60
2023/12/24 11:42:49;;;;;;;0.22;0.10;;;;;;;13.86;100.00;98318.66;7393452;19;20027;-60
2023/12/24 11:45:29;;;;;;;0.30;0.00;;;;;;;14.86;100.00;98323.09;7392552;19;20066;-60
2023/12/24 11:47:55;;;;;;;0.30;0.25;;;;;;;14.23;100.00;98327.63;7392146;19;20355;-60
2023/12/24 11:50:23;;;;;;;0.43;0.35;;;;;;;14.15;100.00;98321.16;7389752;19;20015;-60
2023/12/24 11:52:50;;;;;;;0.00;0.00;;;;;;;13.12;100.00;98314.75;7392221;19;20010;-59
2023/12/24 11:55:20;;;;;;;0.00;0.00;;;;;;;14.12;100.00;98304.69;7391879;19;20377;-60
2023/12/24 11:57:48;;;;;;;0.10;0.10;;;;;;;13.92;100.00;98296.91;7391597;19;20014;-60
2023/12/24 12:00:24;;;;;;;0.20;0.20;;;;;;;13.34;100.00;98314.41;7393220;19;20011;-59
2023/12/24 12:02:58;;;;;;;0.10;0.10;;;;;;;13.16;100.00;98323.56;7392135;19;20014;-59
2023/12/24 12:05:25;;;;;;;0.43;0.20;;;;;;;13.06;100.00;98341.25;7391982;19;20833;-60
2023/12/24 12:07:52;;;;;;;5.32;0.13;;;;;;;13.20;100.00;98332.41;7391632;19;20010;-59
2023/12/24 12:10:19;;;;;;;4.60;0.57;;;;;;;13.61;100.00;98327.19;7392850;19;20011;-59
2023/12/24 12:12:45;;;;;;;3.10;0.52;;;;;;;13.61;100.00;98313.22;7392012;19;20349;-59
2023/12/24 12:15:11;;;;;;;1.98;0.20;;;;;;;13.11;100.00;98312.47;7389969;19;20481;-58
2023/12/24 12:17:37;;;;;;;0.10;0.10;;;;;;;13.18;100.00;98318.22;7389520;19;20033;-58
2023/12/24 12:20:05;;;;;;;0.32;0.10;;;;;;;13.02;100.00;98310.78;7392660;19;20074;-58
2023/12/24 12:22:32;;;;;;;0.00;0.00;;;;;;;13.06;100.00;98311.25;7392206;19;20018;-58
2023/12/24 12:24:58;;;;;;;0.90;0.13;;;;;;;12.92;100.00;98312.47;7392261;19;20015;-58
2023/12/24 12:27:27;;;;;;;0.52;0.20;;;;;;;12.91;100.00;98300.53;7390973;19;20006;-59
2023/12/24 12:29:53;;;;;;;0.10;0.10;;;;;;;13.09;100.00;98310.22;7390457;19;20015;-58
2023/12/24 12:32:19;;;;;;;0.47;0.10;;;;;;;13.03;100.00;98312.31;7391864;19;20031;-58
2023/12/24 12:34:45;;;;;;;0.38;0.30;;;;;;;13.91;100.00;98312.19;7391032;19;20465;-58
2023/12/24 12:37:11;;;;;;;2.00;0.30;;;;;;;13.06;100.00;98288.91;7392020;19;20011;-58
2023/12/24 12:39:37;;;;;;;0.90;0.30;;;;;;;13.03;100.00;98317.91;7391846;19;20066;-58
2023/12/24 12:42:04;;;;;;;0.52;0.00;;;;;;;12.98;100.00;98313.13;7396057;19;20006;-59
2023/12/24 12:44:31;;;;;;;0.80;0.32;;;;;;;13.34;100.00;98303.22;7398521;19;20026;-58
2023/12/24 12:46:57;;;;;;;0.08;0.00;;;;;;;13.24;100.00;98296.50;7398080;19;20006;-58
2023/12/24 12:49:23;;;;;;;0.47;0.10;;;;;;;14.92;100.00;98282.44;7399498;19;20018;-59
2023/12/24 12:51:49;;;;;;;2.15;0.40;;;;;;;15.22;100.00;98270.06;7399322;19;20014;-58
2023/12/24 12:54:20;;;;;;;1.48;0.17;;;;;;;15.40;100.00;98269.13;7400238;19;20014;-58
2023/12/24 12:56:52;;;;;;;0.47;0.30;;;;;;;15.45;100.00;98259.81;7399284;19;20078;-59
2023/12/24 12:59:22;;;;;;;0.10;0.10;;;;;;;15.64;100.00;98265.97;7399620;19;20016;-58
2023/12/24 13:01:49;;;;;;;0.00;0.00;;;;;;;13.83;100.00;98267.31;7399902;19;20462;-58
2023/12/24 13:04:26;;;;;;;1.88;0.20;;;;;;;15.54;100.00;98273.38;7400129;19;20014;-58
2023/12/24 13:07:01;;;;;;;0.20;0.00;;;;;;;14.81;100.00;98265.84;7399145;19;20370;-58
2023/12/24 13:09:32;;;;;;;0.22;0.00;;;;;;;13.88;100.00;98271.31;7399700;19;20471;-59
2023/12/24 13:12:07;;;;;;;;;;;;;;;13.49;100.00;98281.09;7400101;19;20359;-58
2023/12/24 13:14:34;;;;;;;1.00;0.10;;;;;;;14.49;100.00;98273.69;7398736;19;19930;-58
2023/12/24 13:17:06;;;;;;;0.82;0.17;;;;;;;13.40;100.00;98272.38;7398830;19;20511;-58
2023/12/24 13:19:34;;;;;;;0.20;0.10;;;;;;;13.54;100.00;98277.47;7399839;19;20010;-59
2023/12/24 13:22:02;;;;;;;0.10;0.03;;;;;;;13.54;100.00;98282.31;7398938;19;20010;-58
2023/12/24 13:24:28;;;;;;;0.22;0.10;;;;;;;13.77;100.00;98274.28;7399518;19;20402;-58
2023/12/24 13:26:54;;;;;;;0.17;0.17;;;;;;;13.73;100.00;98276.66;7399777;19;20011;-59
2023/12/24 13:29:21;;;;;;;0.32;0.20;;;;;;;13.74;100.00;98275.34;7397980;19;20085;-58
2023/12/24 13:31:47;;;;;;;2.88;0.10;;;;;;;13.74;100.00;98280.94;7400125;19;20015;-58
2023/12/24 13:34:20;;;;;;;0.52;0.13;;;;;;;14.55;100.00;98267.97;7397775;19;20062;-59